createdAt,value
2018-12-13T00:00:03.079Z,-0.3
2018-12-13T00:15:03.447Z,-0.4
2018-12-13T00:30:02.813Z,-0.4
2018-12-13T00:45:03.132Z,-0.4
2018-12-13T01:00:03.462Z,-0.4
2018-12-13T01:15:02.733Z,-0.4
2018-12-13T01:30:03.071Z,-0.3
2018-12-13T01:45:03.391Z,-0.4
2018-12-13T02:00:02.653Z,-0.4
2018-12-13T02:15:02.975Z,-0.5
2018-12-13T02:30:03.365Z,-0.5
2018-12-13T02:45:02.657Z,-0.5
2018-12-13T03:00:02.992Z,-0.6
2018-12-13T03:15:03.239Z,-0.6
2018-12-13T03:30:02.922Z,-0.6
2018-12-13T03:45:03.222Z,-0.6
2018-12-13T04:00:03.445Z,-0.6
2018-12-13T04:15:02.728Z,-0.5
2018-12-13T04:30:03.235Z,-0.4
2018-12-13T04:45:03.395Z,-0.4
2018-12-13T05:00:02.660Z,-0.4
2018-12-13T05:15:02.984Z,-0.4
2018-12-13T05:30:03.421Z,-0.4
2018-12-13T05:45:02.652Z,-0.4
2018-12-13T06:00:02.997Z,-0.4
2018-12-13T06:15:02.589Z,-0.4
2018-12-13T06:30:07.371Z,-0.4
2018-12-13T06:45:03.317Z,-0.4
2018-12-13T07:00:02.915Z,-0.4
2018-12-13T07:15:03.207Z,-0.4
2018-12-13T07:30:02.574Z,-0.4
2018-12-13T07:45:02.846Z,-0.4
2018-12-13T08:00:03.442Z,-0.4
2018-12-13T08:15:02.682Z,-0.4
2018-12-13T08:30:03.064Z,-0.4
2018-12-13T08:45:03.461Z,-0.5
2018-12-13T09:00:02.742Z,-0.4
2018-12-13T09:15:03.047Z,-0.4
2018-12-13T09:30:03.443Z,-0.4
2018-12-13T09:45:02.698Z,-0.4
2018-12-13T10:00:03.027Z,-0.4
2018-12-13T10:15:03.314Z,-0.3
2018-12-13T10:30:02.690Z,-0.4
2018-12-13T10:45:03.391Z,-0.3
2018-12-13T11:00:03.279Z,-0.2
2018-12-13T11:15:02.583Z,-0.3
2018-12-13T11:30:02.925Z,-0.3
2018-12-13T11:45:03.309Z,-0.4
2018-12-13T12:00:02.573Z,-0.4
2018-12-13T12:15:03.327Z,-0.3
2018-12-13T12:30:02.450Z,-0.4
2018-12-13T12:45:02.897Z,-0.4
2018-12-13T13:00:03.204Z,-0.4
2018-12-13T13:15:02.452Z,-0.5
2018-12-13T13:30:03.043Z,-0.4
2018-12-13T13:45:04.242Z,-0.4
2018-12-13T14:00:02.732Z,-0.5
2018-12-13T14:15:03.057Z,-0.5
2018-12-13T14:30:03.353Z,-0.4
2018-12-13T14:45:02.653Z,-0.5
2018-12-13T15:00:03.129Z,-0.6
2018-12-13T15:15:03.439Z,-0.6
2018-12-13T15:30:02.811Z,-0.6
2018-12-13T15:45:03.028Z,-0.6
2018-12-13T16:00:03.322Z,-0.6
2018-12-13T16:15:02.573Z,-0.6
2018-12-13T16:30:02.971Z,-0.7
2018-12-13T16:45:03.390Z,-0.6
2018-12-13T17:00:02.973Z,-0.7
2018-12-13T17:15:03.464Z,-0.8
2018-12-13T17:30:02.881Z,-0.8
2018-12-13T17:45:03.134Z,-0.8
2018-12-13T18:00:02.491Z,-0.9
2018-12-13T18:15:02.839Z,-1.1
2018-12-13T18:30:03.375Z,-1.1
2018-12-13T18:45:02.617Z,-1.1
2018-12-13T19:00:02.984Z,-1.2
2018-12-13T19:15:03.295Z,-1.1
2018-12-13T19:30:02.704Z,-1.1
2018-12-13T19:45:02.882Z,-1.2
2018-12-13T20:00:03.201Z,-1.2
2018-12-13T20:15:02.641Z,-1.2
2018-12-13T20:30:02.979Z,-1.3
2018-12-13T20:45:03.241Z,-1.4
2018-12-13T21:00:02.568Z,-1.4
2018-12-13T21:15:02.886Z,-1.5
2018-12-13T21:30:03.299Z,-1.4
2018-12-13T21:45:02.531Z,-1.4
2018-12-13T22:00:02.924Z,-1.4
2018-12-13T22:15:03.340Z,-1.6
2018-12-13T22:30:02.729Z,-1.5
2018-12-13T22:45:03.050Z,-1.6
2018-12-13T23:00:03.388Z,-1.6
2018-12-13T23:15:02.642Z,-1.5
2018-12-13T23:30:03.069Z,-1.5
2018-12-13T23:45:02.366Z,-1.5
